Terminal Aerodrome Forecast
Issued by NWS

Home | Current Version | Previous Version | Text Only | Print | Product List | Glossary On
Versions: 1 2 3 4 5 6 7 8 9 10 11 12 13
000
FTUS46 KSEW 311735
TAFBLI
TAF
KBLI 311735Z 3118/0118 00000KT P6SM SCT250
     FM312100 28005KT P6SM SCT250
     FM010200 18004KT P6SM SCT250
     FM011200 18008KT P6SM SCT100 BKN200=

USA.gov is the U.S. government's official web portal to all federal, state and local government web resources and services.